Time;durP1;ratioP1;P1;durP2;ratioP2;P2;SDS_P1;SDS_P2;PMS_P1;PMS_P2;Temp;Humidity;BMP_temperature;BMP_pressure;BME280_temperature;BME280_humidity;BME280_pressure;Samples;Min_cycle;Max_cycle;Signal;HPM_P1;HPM_P2
2023/07/03 00:02:00;;;;;;;18.07;12.93;;;;;;;;;;5080455;28;20995;-76
2023/07/03 00:04:45;;;;;;;17.57;13.03;;;;;;;;;;5079150;28;20843;-78
2023/07/03 00:07:18;;;;;;;21.37;14.03;;;;;;;;;;5080270;28;20463;-77
2023/07/03 00:09:52;;;;;;;19.13;14.60;;;;;;;;;;5080590;28;20474;-77
2023/07/03 00:12:20;;;;;;;19.50;14.03;;;;;;;;;;5080574;28;20466;-76
2023/07/03 00:14:52;;;;;;;15.40;12.60;;;;;;;;;;5084945;28;20526;-78
2023/07/03 00:17:28;;;;;;;19.00;12.50;;;;;;;;;;5092595;28;20706;-76
2023/07/03 00:20:10;;;;;;;22.30;12.90;;;;;;;;;;5093614;28;20441;-78
2023/07/03 00:22:46;;;;;;;18.03;13.23;;;;;;;;;;5073885;28;20451;-77
2023/07/03 00:25:24;;;;;;;18.53;13.37;;;;;;;;;;5073352;28;20477;-77
2023/07/03 00:27:53;;;;;;;23.07;14.20;;;;;;;;;;5072894;28;20438;-76
2023/07/03 00:30:25;;;;;;;20.10;12.83;;;;;;;;;;5064693;28;20467;-77
2023/07/03 00:32:56;;;;;;;16.83;12.40;;;;;;;;;;5068888;28;20462;-77
2023/07/03 00:35:41;;;;;;;20.50;13.20;;;;;;;;;;5072636;28;20446;-77
2023/07/03 00:38:11;;;;;;;16.83;12.60;;;;;;;;;;5073574;28;20439;-76
2023/07/03 00:40:42;;;;;;;16.80;13.67;;;;;;;;;;5073501;28;20442;-77
2023/07/03 00:43:21;;;;;;;19.37;13.40;;;;;;;;;;5072870;28;20494;-77
2023/07/03 00:45:50;;;;;;;19.67;14.03;;;;;;;;;;5073286;28;20602;-77
2023/07/03 00:48:21;;;;;;;15.90;12.13;;;;;;;;;;5068957;28;20465;-76
2023/07/03 00:51:21;;;;;;;18.90;14.33;;;;;;;;;;5066951;28;20434;-77
2023/07/03 00:53:56;;;;;;;17.23;13.07;;;;;;;;;;5062912;28;20841;-78
2023/07/03 00:56:28;;;;;;;18.23;13.00;;;;;;;;;;5074228;28;20444;-77
2023/07/03 00:58:57;;;;;;;14.43;11.60;;;;;;;;;;5073221;28;20499;-77
2023/07/03 01:02:03;;;;;;;16.23;12.63;;;;;;;;;;5068171;28;21026;-77
2023/07/03 01:04:45;;;;;;;17.00;13.20;;;;;;;;;;5067098;28;20464;-76
2023/07/03 01:07:41;;;;;;;18.23;12.50;;;;;;;;;;5062573;28;20530;-76
2023/07/03 01:10:14;;;;;;;17.20;13.23;;;;;;;;;;5060763;28;20658;-76
2023/07/03 01:12:53;;;;;;;22.90;12.57;;;;;;;;;;5056678;28;20470;-77
2023/07/03 01:15:24;;;;;;;19.00;13.40;;;;;;;;;;5058416;28;20813;-77
2023/07/03 01:17:55;;;;;;;18.47;13.07;;;;;;;;;;5060272;28;20561;-77
2023/07/03 01:20:27;;;;;;;16.33;12.10;;;;;;;;;;5059199;28;20476;-77
2023/07/03 01:23:01;;;;;;;15.23;11.97;;;;;;;;;;5074782;28;20473;-76
2023/07/03 01:25:40;;;;;;;20.07;12.30;;;;;;;;;;5085825;28;20458;-78
2023/07/03 01:28:35;;;;;;;16.90;12.60;;;;;;;;;;5084514;28;20430;-77
2023/07/03 01:37:55;;;;;;;;;;;;;;;;;;;;;
2023/07/03 01:44:11;;;;;;;18.80;12.40;;;;;;;;;;5028850;28;20436;-76
2023/07/03 01:50:27;;;;;;;16.87;12.00;;;;;;;;;;5029990;28;20482;-76
2023/07/03 02:05:32;;;;;;;19.87;13.07;;;;;;;;;;5059240;28;20466;-77
2023/07/03 02:08:04;;;;;;;17.10;12.60;;;;;;;;;;5077780;28;20974;-77
2023/07/03 02:10:37;;;;;;;17.83;12.70;;;;;;;;;;5079128;28;20478;-78
2023/07/03 02:13:07;;;;;;;17.30;12.77;;;;;;;;;;5077878;28;20906;-77
2023/07/03 02:15:36;;;;;;;17.97;12.17;;;;;;;;;;5078770;28;21039;-76
2023/07/03 02:18:05;;;;;;;16.43;13.00;;;;;;;;;;5078216;28;20480;-77
2023/07/03 02:20:49;;;;;;;16.77;12.80;;;;;;;;;;5079513;28;20450;-76
2023/07/03 02:23:24;;;;;;;17.53;12.80;;;;;;;;;;5081363;28;20897;-76
2023/07/03 02:26:16;;;;;;;17.83;12.90;;;;;;;;;;5082903;28;20457;-76
2023/07/03 02:32:02;;;;;;;17.03;12.90;;;;;;;;;;5071127;28;21000;-76
2023/07/03 02:34:42;;;;;;;17.13;12.10;;;;;;;;;;5004383;28;20531;-76
2023/07/03 02:40:25;;;;;;;15.80;12.43;;;;;;;;;;5079192;28;20525;-76
2023/07/03 02:43:02;;;;;;;15.53;11.77;;;;;;;;;;5079876;28;20499;-76
2023/07/03 02:48:30;;;;;;;17.63;11.93;;;;;;;;;;5071496;28;20487;-77
2023/07/03 02:51:10;;;;;;;15.90;11.60;;;;;;;;;;5077876;28;20473;-76
2023/07/03 02:53:47;;;;;;;20.33;12.40;;;;;;;;;;5069828;28;20469;-78
2023/07/03 02:56:47;;;;;;;15.87;11.80;;;;;;;;;;5076683;28;20454;-77
2023/07/03 02:59:18;;;;;;;18.33;11.90;;;;;;;;;;5077572;28;20450;-77
2023/07/03 03:33:12;;;;;;;;;;;;;;;;;;;;;
2023/07/03 03:35:45;;;;;;;17.00;12.40;;;;;;;;;;4961449;29;20548;-77
2023/07/03 04:03:34;;;;;;;17.03;12.13;;;;;;;;;;5037767;28;20462;-76
2023/07/03 04:09:24;;;;;;;17.10;11.93;;;;;;;;;;5017421;28;20816;-76
2023/07/03 04:58:04;;;;;;;15.37;12.17;;;;;;;;;;4917061;28;20510;-74
2023/07/03 05:00:48;;;;;;;18.40;12.23;;;;;;;;;;5027208;28;20807;-77
2023/07/03 05:03:36;;;;;;;13.87;11.30;;;;;;;;;;5061335;28;20521;-79
2023/07/03 05:06:07;;;;;;;13.83;11.10;;;;;;;;;;5061575;28;20452;-76
2023/07/03 05:08:36;;;;;;;14.60;11.00;;;;;;;;;;5060796;28;20506;-76
2023/07/03 05:23:37;;;;;;;16.27;10.77;;;;;;;;;;4957977;29;20452;-76
2023/07/03 05:26:33;;;;;;;12.13;10.30;;;;;;;;;;5017404;28;20459;-78
2023/07/03 05:29:02;;;;;;;16.70;11.43;;;;;;;;;;5017132;28;20469;-76
2023/07/03 05:34:45;;;;;;;13.83;10.73;;;;;;;;;;5048325;28;20458;-77
2023/07/03 05:37:46;;;;;;;14.13;10.87;;;;;;;;;;5065335;28;20457;-78
2023/07/03 05:40:51;;;;;;;15.93;10.80;;;;;;;;;;5063613;28;21015;-75
2023/07/03 05:52:41;;;;;;;16.47;11.00;;;;;;;;;;5025528;28;20433;-78
2023/07/03 06:10:56;;;;;;;10.90;9.43;;;;;;;;;;4997754;28;20513;-76
2023/07/03 06:13:31;;;;;;;14.33;9.67;;;;;;;;;;5059912;28;20510;-76
2023/07/03 06:16:12;;;;;;;12.50;9.77;;;;;;;;;;5065585;28;20467;-78
2023/07/03 06:55:32;;;;;;;11.70;8.53;;;;;;;;;;4829454;29;20448;-76
2023/07/03 06:58:13;;;;;;;12.77;8.70;;;;;;;;;;4833775;29;20460;-77
2023/07/03 07:00:41;;;;;;;15.33;9.90;;;;;;;;;;4910431;28;20455;-76
2023/07/03 07:03:10;;;;;;;11.73;8.50;;;;;;;;;;5060992;28;20480;-77
2023/07/03 07:05:46;;;;;;;16.10;9.43;;;;;;;;;;5062702;28;20501;-77
2023/07/03 07:08:16;;;;;;;12.40;9.70;;;;;;;;;;5061504;28;20977;-76
2023/07/03 07:10:56;;;;;;;16.07;9.83;;;;;;;;;;5058945;28;20484;-76
2023/07/03 07:13:38;;;;;;;11.10;8.80;;;;;;;;;;5057334;28;20492;-77
2023/07/03 07:19:24;;;;;;;;;;;;;;;;;;;;;
2023/07/03 07:21:53;;;;;;;11.77;9.20;;;;;;;;;;5072464;28;20529;-77
2023/07/03 07:27:17;;;;;;;17.20;9.07;;;;;;;;;;5015900;28;20467;-78
2023/07/03 07:29:45;;;;;;;12.80;9.60;;;;;;;;;;5065856;28;20453;-78
2023/07/03 07:32:25;;;;;;;15.93;9.83;;;;;;;;;;5078632;28;20495;-76
2023/07/03 07:35:01;;;;;;;12.80;9.77;;;;;;;;;;5077676;28;20521;-75
2023/07/03 07:37:34;;;;;;;13.87;9.63;;;;;;;;;;5079041;28;20474;-76
2023/07/03 07:40:05;;;;;;;16.47;10.30;;;;;;;;;;5085885;28;20546;-77
2023/07/03 07:42:34;;;;;;;10.83;8.60;;;;;;;;;;5078448;28;20466;-78
2023/07/03 07:45:12;;;;;;;14.10;9.43;;;;;;;;;;5077883;28;20452;-75
2023/07/03 07:47:41;;;;;;;16.10;9.60;;;;;;;;;;5083441;28;20448;-78
2023/07/03 07:50:10;;;;;;;12.80;9.20;;;;;;;;;;5083600;28;20437;-77
2023/07/03 07:52:39;;;;;;;13.17;9.00;;;;;;;;;;5081219;28;20468;-76
2023/07/03 07:55:14;;;;;;;15.73;9.73;;;;;;;;;;5082062;28;20456;-77
2023/07/03 07:58:01;;;;;;;16.47;10.20;;;;;;;;;;5088208;28;20447;-76
2023/07/03 08:00:42;;;;;;;17.60;10.60;;;;;;;;;;5087181;28;20446;-78
2023/07/03 08:03:10;;;;;;;14.57;10.17;;;;;;;;;;5079830;28;20563;-76
2023/07/03 08:05:52;;;;;;;;;;;;;;;;;;;;;
2023/07/03 08:08:33;;;;;;;18.80;10.63;;;;;;;;;;5080208;28;20516;-77
2023/07/03 08:11:06;;;;;;;16.43;9.77;;;;;;;;;;5090224;28;20512;-78
2023/07/03 08:13:36;;;;;;;13.53;10.07;;;;;;;;;;5090495;28;20457;-77
2023/07/03 08:16:07;;;;;;;14.33;10.33;;;;;;;;;;5092086;28;20455;-78
2023/07/03 08:18:35;;;;;;;14.87;9.77;;;;;;;;;;5090395;28;20477;-76
2023/07/03 08:21:10;;;;;;;12.50;10.30;;;;;;;;;;5089525;28;20859;-75
2023/07/03 08:23:44;;;;;;;17.73;10.03;;;;;;;;;;5084299;28;20452;-76
2023/07/03 08:26:18;;;;;;;13.80;9.77;;;;;;;;;;5083850;28;20449;-77
2023/07/03 08:28:48;;;;;;;15.87;11.40;;;;;;;;;;5081088;28;20527;-78
2023/07/03 08:31:18;;;;;;;12.63;10.00;;;;;;;;;;5081556;28;20480;-78
2023/07/03 08:33:47;;;;;;;13.37;10.13;;;;;;;;;;5079662;28;20520;-77
2023/07/03 08:36:16;;;;;;;16.27;10.50;;;;;;;;;;5082258;28;20521;-77
2023/07/03 08:38:44;;;;;;;17.33;10.57;;;;;;;;;;5080442;28;20516;-78
2023/07/03 08:41:14;;;;;;;13.97;10.47;;;;;;;;;;5080625;28;20455;-74
2023/07/03 08:43:47;;;;;;;12.00;10.10;;;;;;;;;;5081317;28;20475;-79
2023/07/03 08:46:17;;;;;;;14.27;10.40;;;;;;;;;;5084028;28;20952;-78
2023/07/03 08:48:51;;;;;;;12.03;9.70;;;;;;;;;;5085386;28;20440;-77
2023/07/03 08:51:23;;;;;;;13.43;10.17;;;;;;;;;;5090827;28;20484;-78
2023/07/03 08:54:20;;;;;;;15.00;10.27;;;;;;;;;;5089825;28;20465;-78
2023/07/03 08:57:09;;;;;;;15.30;9.60;;;;;;;;;;5020915;28;20451;-77
2023/07/03 08:59:51;;;;;;;14.60;10.43;;;;;;;;;;5087471;28;20574;-77
2023/07/03 09:02:26;;;;;;;13.73;10.03;;;;;;;;;;5090148;28;20454;-78
2023/07/03 09:08:16;;;;;;;14.47;9.53;;;;;;;;;;5076338;28;20433;-77
2023/07/03 09:10:50;;;;;;;14.23;9.57;;;;;;;;;;5087612;28;20504;-80
2023/07/03 09:13:25;;;;;;;14.33;9.97;;;;;;;;;;5086492;28;20500;-79
2023/07/03 09:16:00;;;;;;;16.90;9.73;;;;;;;;;;5087457;28;20431;-76
2023/07/03 09:18:39;;;;;;;16.23;10.23;;;;;;;;;;5086962;28;20482;-78
2023/07/03 09:21:12;;;;;;;14.83;9.30;;;;;;;;;;5087749;28;20460;-78
2023/07/03 09:23:44;;;;;;;17.63;10.30;;;;;;;;;;5088545;28;20493;-78
2023/07/03 09:26:16;;;;;;;14.83;9.40;;;;;;;;;;5087448;28;20579;-79
2023/07/03 09:28:45;;;;;;;10.80;8.40;;;;;;;;;;5086653;28;20436;-78
2023/07/03 09:31:16;;;;;;;14.83;9.50;;;;;;;;;;5088451;28;20481;-77
2023/07/03 09:33:44;;;;;;;10.27;8.53;;;;;;;;;;5088453;28;20495;-79
2023/07/03 09:39:30;;;;;;;19.10;9.90;;;;;;;;;;5078397;28;20953;-77
2023/07/03 09:42:23;;;;;;;12.00;8.70;;;;;;;;;;5082265;28;20505;-80
2023/07/03 09:44:56;;;;;;;14.87;8.50;;;;;;;;;;5079447;28;20472;-78
2023/07/03 09:47:34;;;;;;;14.80;8.60;;;;;;;;;;5079445;28;20429;-76
2023/07/03 09:50:10;;;;;;;18.03;9.10;;;;;;;;;;5078968;28;20460;-78
2023/07/03 09:52:44;;;;;;;12.23;8.00;;;;;;;;;;5079605;28;20480;-77
2023/07/03 09:55:15;;;;;;;10.20;7.40;;;;;;;;;;5077318;28;20452;-79
2023/07/03 09:57:43;;;;;;;13.77;7.77;;;;;;;;;;5079005;28;20427;-79
2023/07/03 10:00:14;;;;;;;10.93;6.60;;;;;;;;;;5082897;28;20448;-77
2023/07/03 10:02:52;;;;;;;10.50;6.47;;;;;;;;;;5083507;28;20488;-78
2023/07/03 10:05:21;;;;;;;12.20;7.70;;;;;;;;;;5087144;28;21044;-78
2023/07/03 10:07:50;;;;;;;9.30;7.10;;;;;;;;;;5088318;28;20453;-77
2023/07/03 10:10:22;;;;;;;10.90;7.10;;;;;;;;;;5086460;28;20477;-78
2023/07/03 10:12:53;;;;;;;11.27;6.40;;;;;;;;;;5087097;28;20575;-77
2023/07/03 10:15:27;;;;;;;11.83;6.70;;;;;;;;;;5088625;28;20527;-77
2023/07/03 10:18:01;;;;;;;10.33;6.33;;;;;;;;;;5087828;28;20440;-78
2023/07/03 10:20:33;;;;;;;14.00;7.77;;;;;;;;;;5089510;28;20822;-77
2023/07/03 10:23:03;;;;;;;7.33;6.57;;;;;;;;;;5089635;28;20870;-77
2023/07/03 10:25:35;;;;;;;10.47;6.90;;;;;;;;;;5089783;28;20468;-76
2023/07/03 10:28:07;;;;;;;8.07;5.67;;;;;;;;;;5086202;28;20459;-77
2023/07/03 10:30:37;;;;;;;9.27;6.80;;;;;;;;;;5083364;28;20463;-76
2023/07/03 10:33:11;;;;;;;8.60;5.83;;;;;;;;;;5083969;28;20489;-77
2023/07/03 10:35:44;;;;;;;9.77;6.53;;;;;;;;;;5085678;28;20821;-78
2023/07/03 10:38:17;;;;;;;6.33;5.63;;;;;;;;;;5084917;28;20439;-77
2023/07/03 10:40:53;;;;;;;9.33;5.70;;;;;;;;;;5087162;28;20492;-76
2023/07/03 10:43:23;;;;;;;9.93;5.37;;;;;;;;;;5086025;28;20494;-76
2023/07/03 10:45:59;;;;;;;8.33;5.20;;;;;;;;;;5087157;28;20425;-76
2023/07/03 10:48:40;;;;;;;8.87;4.30;;;;;;;;;;5084583;28;20439;-77
2023/07/03 10:51:15;;;;;;;5.70;4.50;;;;;;;;;;5084141;28;20447;-76
2023/07/03 10:53:45;;;;;;;6.33;4.37;;;;;;;;;;5081587;28;20549;-78
2023/07/03 10:56:18;;;;;;;5.17;3.73;;;;;;;;;;5079080;28;20547;-76
2023/07/03 10:58:51;;;;;;;8.70;4.47;;;;;;;;;;5079485;28;20427;-77
2023/07/03 11:01:21;;;;;;;7.40;4.23;;;;;;;;;;5079528;28;20451;-76
2023/07/03 11:03:55;;;;;;;9.47;3.90;;;;;;;;;;5081022;28;20884;-77
2023/07/03 11:09:23;;;;;;;6.40;4.63;;;;;;;;;;5078265;28;20482;-76
2023/07/03 11:11:58;;;;;;;6.43;4.10;;;;;;;;;;5079743;28;20468;-76
2023/07/03 11:14:29;;;;;;;5.40;4.00;;;;;;;;;;5079781;28;20873;-76
2023/07/03 11:17:10;;;;;;;5.40;4.23;;;;;;;;;;5081439;28;20467;-75
2023/07/03 11:19:43;;;;;;;5.40;4.00;;;;;;;;;;5079470;28;20445;-76
2023/07/03 11:22:15;;;;;;;6.50;5.37;;;;;;;;;;5080221;28;20467;-77
2023/07/03 11:24:49;;;;;;;9.77;5.10;;;;;;;;;;5080407;28;20512;-75
2023/07/03 11:27:29;;;;;;;8.43;5.13;;;;;;;;;;5079440;28;20471;-78
2023/07/03 11:29:58;;;;;;;5.53;4.80;;;;;;;;;;5078405;28;20653;-77
2023/07/03 11:32:30;;;;;;;7.40;4.53;;;;;;;;;;5079055;28;20563;-76
2023/07/03 11:34:58;;;;;;;7.60;4.90;;;;;;;;;;5079933;28;21020;-76
2023/07/03 11:37:38;;;;;;;8.30;5.07;;;;;;;;;;5084666;28;20468;-78
2023/07/03 11:40:24;;;;;;;7.83;5.30;;;;;;;;;;5084720;28;20458;-76
2023/07/03 11:43:22;;;;;;;8.80;5.00;;;;;;;;;;5081597;28;20469;-77
2023/07/03 11:46:09;;;;;;;8.83;5.67;;;;;;;;;;5077601;28;20453;-78
2023/07/03 11:49:05;;;;;;;9.53;6.00;;;;;;;;;;5078163;28;20518;-77
2023/07/03 11:51:37;;;;;;;11.17;5.80;;;;;;;;;;5078531;28;20487;-77
2023/07/03 11:54:19;;;;;;;9.33;5.53;;;;;;;;;;5077191;28;21015;-77
2023/07/03 11:56:51;;;;;;;9.37;5.70;;;;;;;;;;5078288;28;20444;-78
2023/07/03 11:59:29;;;;;;;8.53;5.87;;;;;;;;;;5079381;28;20502;-76
2023/07/03 12:02:26;;;;;;;11.80;6.20;;;;;;;;;;5080558;28;20944;-78
2023/07/03 12:04:56;;;;;;;14.40;6.67;;;;;;;;;;5080814;28;20511;-78
2023/07/03 12:08:00;;;;;;;9.40;5.47;;;;;;;;;;5083058;28;20521;-78
2023/07/03 12:10:57;;;;;;;11.50;6.70;;;;;;;;;;5053661;28;20436;-76
2023/07/03 12:13:31;;;;;;;8.57;5.80;;;;;;;;;;5041774;28;20517;-77
2023/07/03 12:16:02;;;;;;;9.77;6.80;;;;;;;;;;5088831;28;20432;-78
2023/07/03 12:24:26;;;;;;;7.20;5.73;;;;;;;;;;5030391;28;20466;-77
2023/07/03 12:27:00;;;;;;;6.33;5.60;;;;;;;;;;5057746;28;20521;-76
2023/07/03 12:29:28;;;;;;;6.93;5.43;;;;;;;;;;5063907;28;20536;-76
2023/07/03 12:32:08;;;;;;;7.60;5.23;;;;;;;;;;5063888;28;20485;-77
2023/07/03 12:34:50;;;;;;;10.20;6.17;;;;;;;;;;5064727;28;20465;-77
2023/07/03 12:37:20;;;;;;;8.97;4.93;;;;;;;;;;5064494;28;20426;-76
2023/07/03 12:42:31;;;;;;;6.87;4.10;;;;;;;;;;5042448;28;20434;-76
2023/07/03 12:45:17;;;;;;;7.63;4.90;;;;;;;;;;5065265;28;20426;-76
2023/07/03 12:48:10;;;;;;;7.40;4.40;;;;;;;;;;5065124;28;20469;-76
2023/07/03 12:50:55;;;;;;;5.10;4.10;;;;;;;;;;5066833;28;20452;-78
2023/07/03 12:53:32;;;;;;;7.87;4.73;;;;;;;;;;5068657;28;20508;-77
2023/07/03 12:56:01;;;;;;;7.10;3.90;;;;;;;;;;5068112;28;20457;-76
2023/07/03 12:58:29;;;;;;;6.13;4.07;;;;;;;;;;5068477;28;20483;-76
2023/07/03 13:01:10;;;;;;;7.40;4.13;;;;;;;;;;5068447;28;20446;-75
2023/07/03 13:04:03;;;;;;;5.33;4.13;;;;;;;;;;5068357;28;20470;-77
2023/07/03 13:07:05;;;;;;;9.90;4.20;;;;;;;;;;5065323;28;20446;-75
2023/07/03 13:12:35;;;;;;;5.00;3.67;;;;;;;;;;5062958;28;20827;-78
2023/07/03 13:15:13;;;;;;;4.10;3.60;;;;;;;;;;5065756;28;20454;-78
2023/07/03 13:18:02;;;;;;;;;;;;;;;;;;;;;
2023/07/03 13:20:41;;;;;;;5.97;3.40;;;;;;;;;;5066617;28;20460;-77
2023/07/03 13:23:16;;;;;;;7.43;2.93;;;;;;;;;;5081441;28;20488;-75
2023/07/03 13:25:55;;;;;;;3.90;2.83;;;;;;;;;;5084211;28;20453;-75
2023/07/03 13:28:29;;;;;;;5.10;3.53;;;;;;;;;;5088801;28;20448;-75
2023/07/03 13:31:24;;;;;;;6.47;3.93;;;;;;;;;;5091780;28;20437;-76
2023/07/03 13:34:06;;;;;;;5.83;3.40;;;;;;;;;;5091646;28;20496;-76
2023/07/03 13:36:42;;;;;;;6.73;3.17;;;;;;;;;;5092262;28;20429;-77
2023/07/03 13:39:49;;;;;;;5.57;3.10;;;;;;;;;;5096419;28;20432;-78
2023/07/03 13:42:49;;;;;;;3.50;2.93;;;;;;;;;;5097551;28;20440;-78
2023/07/03 13:45:41;;;;;;;4.83;3.27;;;;;;;;;;5098687;28;20427;-79
2023/07/03 13:50:59;;;;;;;3.77;3.00;;;;;;;;;;5086490;28;20449;-76
2023/07/03 13:53:33;;;;;;;9.30;2.87;;;;;;;;;;5088108;28;20559;-75
2023/07/03 13:56:09;;;;;;;7.93;3.60;;;;;;;;;;5086356;28;20463;-75
2023/07/03 13:59:15;;;;;;;3.53;2.77;;;;;;;;;;5086918;28;20452;-76
2023/07/03 14:04:35;;;;;;;2.73;2.47;;;;;;;;;;5085868;28;20464;-77
2023/07/03 14:07:14;;;;;;;3.20;2.90;;;;;;;;;;5089722;28;20520;-77
2023/07/03 14:09:45;;;;;;;4.00;2.50;;;;;;;;;;5087947;28;20504;-75
2023/07/03 14:12:46;;;;;;;3.60;2.50;;;;;;;;;;5088978;28;20567;-75
2023/07/03 14:15:28;;;;;;;5.07;2.80;;;;;;;;;;5082768;28;20470;-77
2023/07/03 14:17:57;;;;;;;3.87;2.13;;;;;;;;;;5086164;28;20518;-77
2023/07/03 14:20:39;;;;;;;5.10;2.80;;;;;;;;;;5083988;28;20443;-77
2023/07/03 14:23:24;;;;;;;2.13;1.93;;;;;;;;;;5080182;28;20474;-75
2023/07/03 14:32:19;;;;;;;2.30;1.83;;;;;;;;;;5078018;28;20447;-77
2023/07/03 14:41:11;;;;;;;2.70;1.73;;;;;;;;;;5073784;28;21188;-76
2023/07/03 14:43:43;;;;;;;1.80;1.70;;;;;;;;;;5078008;28;20461;-77
2023/07/03 14:46:17;;;;;;;3.47;1.90;;;;;;;;;;5080403;28;20542;-76
2023/07/03 14:48:57;;;;;;;2.60;2.37;;;;;;;;;;5080907;28;20448;-76
2023/07/03 14:51:26;;;;;;;2.43;2.23;;;;;;;;;;5079271;28;20453;-77
2023/07/03 14:53:55;;;;;;;4.40;1.80;;;;;;;;;;5083339;28;20547;-79
2023/07/03 14:56:26;;;;;;;3.00;1.90;;;;;;;;;;5083332;28;20464;-78
2023/07/03 14:59:00;;;;;;;2.37;2.03;;;;;;;;;;5085489;28;20448;-77
2023/07/03 15:01:49;;;;;;;3.53;1.87;;;;;;;;;;5080685;28;20476;-78
2023/07/03 15:04:22;;;;;;;1.93;1.70;;;;;;;;;;5076540;28;20551;-77
2023/07/03 15:06:50;;;;;;;4.60;1.80;;;;;;;;;;5080761;28;20581;-75
2023/07/03 15:09:25;;;;;;;1.77;1.67;;;;;;;;;;5083138;28;20432;-76
2023/07/03 15:11:53;;;;;;;1.77;1.57;;;;;;;;;;5082456;28;20451;-77
2023/07/03 15:14:22;;;;;;;2.53;1.50;;;;;;;;;;5081427;28;20477;-76
2023/07/03 15:16:50;;;;;;;1.83;1.30;;;;;;;;;;5081300;28;20485;-78
2023/07/03 15:19:22;;;;;;;2.57;1.87;;;;;;;;;;5082286;28;20432;-77
2023/07/03 15:21:54;;;;;;;1.30;1.30;;;;;;;;;;5079753;28;20467;-77
2023/07/03 15:24:23;;;;;;;1.60;1.30;;;;;;;;;;5081638;28;20469;-77
2023/07/03 15:26:58;;;;;;;1.67;1.40;;;;;;;;;;5085547;28;20452;-75
2023/07/03 15:29:38;;;;;;;2.97;1.33;;;;;;;;;;5086149;28;20421;-77
2023/07/03 15:35:01;;;;;;;3.63;1.00;;;;;;;;;;5085717;28;20443;-77
2023/07/03 15:37:29;;;;;;;1.10;1.00;;;;;;;;;;5082724;28;20421;-78
2023/07/03 15:40:00;;;;;;;1.07;1.03;;;;;;;;;;5080698;28;20473;-77
2023/07/03 15:42:31;;;;;;;1.70;1.13;;;;;;;;;;5082268;28;20873;-79
2023/07/03 15:45:03;;;;;;;1.80;1.50;;;;;;;;;;5081066;28;20444;-77
2023/07/03 15:47:31;;;;;;;2.60;1.17;;;;;;;;;;5081016;28;21099;-76
2023/07/03 15:50:03;;;;;;;1.20;1.10;;;;;;;;;;5080195;28;20524;-77
2023/07/03 15:52:32;;;;;;;1.30;1.17;;;;;;;;;;5080089;28;20453;-74
2023/07/03 15:55:03;;;;;;;1.37;1.10;;;;;;;;;;5080310;28;20449;-77
2023/07/03 15:57:33;;;;;;;1.33;1.20;;;;;;;;;;5079916;28;20472;-77
2023/07/03 16:00:03;;;;;;;1.60;1.40;;;;;;;;;;5079588;28;20448;-76
2023/07/03 16:02:41;;;;;;;1.23;1.10;;;;;;;;;;5079038;28;20506;-77
2023/07/03 16:05:12;;;;;;;1.80;0.80;;;;;;;;;;5080511;28;20444;-78
2023/07/03 16:07:40;;;;;;;1.40;1.00;;;;;;;;;;5080689;28;20488;-78
2023/07/03 16:10:09;;;;;;;1.07;1.00;;;;;;;;;;5080545;28;20565;-78
2023/07/03 16:12:39;;;;;;;1.43;1.33;;;;;;;;;;5080343;28;20457;-77
2023/07/03 16:15:11;;;;;;;0.90;0.90;;;;;;;;;;5081304;28;20472;-75
2023/07/03 16:17:48;;;;;;;1.73;1.27;;;;;;;;;;5079311;28;20502;-76
2023/07/03 16:20:20;;;;;;;1.13;1.03;;;;;;;;;;5081717;28;20445;-78
2023/07/03 16:22:48;;;;;;;1.50;1.40;;;;;;;;;;5077337;28;20477;-77
2023/07/03 16:28:08;;;;;;;3.03;1.93;;;;;;;;;;5065058;28;20443;-77
2023/07/03 16:30:37;;;;;;;1.83;1.60;;;;;;;;;;5080363;28;20464;-76
2023/07/03 16:33:17;;;;;;;1.00;0.90;;;;;;;;;;5082433;28;20540;-76
2023/07/03 16:35:56;;;;;;;1.20;1.10;;;;;;;;;;5082729;28;20570;-77
2023/07/03 16:38:24;;;;;;;2.33;1.50;;;;;;;;;;5081343;28;20456;-78
2023/07/03 16:41:00;;;;;;;2.23;1.43;;;;;;;;;;5083582;28;20459;-77
2023/07/03 16:43:31;;;;;;;1.63;1.13;;;;;;;;;;5084663;28;20487;-77
2023/07/03 16:46:00;;;;;;;1.20;1.10;;;;;;;;;;5083764;28;20433;-77
2023/07/03 16:48:30;;;;;;;3.57;1.50;;;;;;;;;;5085233;28;20456;-76
2023/07/03 16:51:03;;;;;;;1.60;1.43;;;;;;;;;;5086475;28;20456;-78
2023/07/03 16:53:34;;;;;;;1.53;1.43;;;;;;;;;;5083482;28;20477;-76
2023/07/03 16:56:03;;;;;;;2.70;1.70;;;;;;;;;;5081749;28;20454;-76
2023/07/03 16:58:39;;;;;;;2.63;1.20;;;;;;;;;;5077860;28;20815;-75
2023/07/03 17:01:14;;;;;;;1.77;1.30;;;;;;;;;;5076542;28;20795;-76
2023/07/03 17:06:36;;;;;;;1.60;1.33;;;;;;;;;;5051243;28;20448;-77
2023/07/03 17:09:05;;;;;;;1.67;1.57;;;;;;;;;;5081889;28;20445;-76
2023/07/03 17:11:35;;;;;;;1.93;1.33;;;;;;;;;;5081793;28;20456;-77
2023/07/03 17:14:04;;;;;;;2.80;1.30;;;;;;;;;;5079031;28;20573;-78
2023/07/03 17:16:33;;;;;;;2.43;1.47;;;;;;;;;;5077898;28;20479;-78
2023/07/03 17:19:04;;;;;;;2.70;1.33;;;;;;;;;;5080074;28;20478;-78
2023/07/03 17:21:37;;;;;;;1.60;1.43;;;;;;;;;;5078664;28;20452;-78
2023/07/03 17:24:05;;;;;;;1.73;1.30;;;;;;;;;;5080863;28;20522;-77
2023/07/03 17:26:34;;;;;;;1.70;1.60;;;;;;;;;;5081983;28;20452;-77
2023/07/03 17:29:04;;;;;;;1.23;1.10;;;;;;;;;;5083791;28;20525;-77
2023/07/03 17:31:32;;;;;;;1.83;1.30;;;;;;;;;;5086170;28;20468;-78
2023/07/03 17:34:06;;;;;;;1.50;1.40;;;;;;;;;;5084398;28;20476;-78
2023/07/03 17:36:36;;;;;;;1.93;1.80;;;;;;;;;;5084846;28;20452;-77
2023/07/03 17:39:03;;;;;;;1.70;1.60;;;;;;;;;;5083504;28;20456;-78
2023/07/03 17:41:31;;;;;;;1.97;1.53;;;;;;;;;;5080207;28;20475;-77
2023/07/03 17:43:59;;;;;;;2.80;1.30;;;;;;;;;;5079564;28;20746;-77
2023/07/03 17:46:27;;;;;;;2.17;1.63;;;;;;;;;;5078687;28;20467;-78
2023/07/03 17:48:56;;;;;;;2.17;1.70;;;;;;;;;;5077840;28;20805;-77
2023/07/03 17:51:26;;;;;;;1.47;1.37;;;;;;;;;;5075246;28;21051;-76
2023/07/03 17:53:56;;;;;;;1.60;1.50;;;;;;;;;;5075805;28;20479;-78
2023/07/03 17:56:23;;;;;;;2.80;1.63;;;;;;;;;;5075214;28;20432;-81
2023/07/03 17:58:51;;;;;;;1.77;1.60;;;;;;;;;;5074750;28;20517;-76
2023/07/03 18:01:19;;;;;;;1.63;1.50;;;;;;;;;;5078144;28;20969;-79
2023/07/03 18:03:47;;;;;;;2.10;1.90;;;;;;;;;;5073364;28;20481;-78
2023/07/03 18:06:14;;;;;;;2.23;1.93;;;;;;;;;;5079063;28;20459;-77
2023/07/03 18:08:45;;;;;;;2.10;1.90;;;;;;;;;;5080040;28;20455;-79
2023/07/03 18:11:14;;;;;;;1.90;1.80;;;;;;;;;;5079181;28;20459;-76
2023/07/03 18:13:42;;;;;;;2.97;2.00;;;;;;;;;;5075474;28;20519;-77
2023/07/03 18:16:10;;;;;;;2.33;2.00;;;;;;;;;;5076224;28;20462;-77
2023/07/03 18:18:37;;;;;;;4.60;1.30;;;;;;;;;;5074920;28;20452;-79
2023/07/03 18:21:05;;;;;;;1.60;1.30;;;;;;;;;;5074758;28;20442;-79
2023/07/03 18:23:33;;;;;;;1.83;1.73;;;;;;;;;;5074224;28;20456;-77
2023/07/03 18:26:00;;;;;;;2.40;1.50;;;;;;;;;;5079766;28;20864;-79
2023/07/03 18:28:39;;;;;;;1.40;1.20;;;;;;;;;;5080989;28;20527;-78
2023/07/03 18:31:13;;;;;;;1.73;1.63;;;;;;;;;;5081510;28;20437;-77
2023/07/03 18:33:46;;;;;;;1.77;1.67;;;;;;;;;;5082863;28;20513;-77
2023/07/03 18:36:17;;;;;;;2.43;1.40;;;;;;;;;;5089310;28;20455;-77
2023/07/03 18:38:49;;;;;;;1.50;1.40;;;;;;;;;;5089057;28;20448;-77
2023/07/03 18:41:17;;;;;;;1.60;1.50;;;;;;;;;;5088167;28;20500;-77
2023/07/03 18:43:48;;;;;;;1.53;1.20;;;;;;;;;;5089220;28;20462;-76
2023/07/03 18:46:16;;;;;;;1.70;1.50;;;;;;;;;;5085322;28;20538;-79
2023/07/03 18:48:44;;;;;;;1.47;1.33;;;;;;;;;;5088712;28;20478;-76
2023/07/03 18:51:31;;;;;;;1.30;1.20;;;;;;;;;;5087536;28;20445;-75
2023/07/03 18:54:00;;;;;;;3.13;1.57;;;;;;;;;;5090922;28;20504;-78
2023/07/03 18:56:37;;;;;;;4.67;2.40;;;;;;;;;;5091986;28;20449;-76
2023/07/03 18:59:06;;;;;;;2.73;1.70;;;;;;;;;;5092190;28;20438;-76
2023/07/03 19:01:40;;;;;;;3.23;1.67;;;;;;;;;;5091031;28;20508;-77
2023/07/03 19:04:08;;;;;;;2.70;1.80;;;;;;;;;;5091487;28;20477;-76
2023/07/03 19:06:41;;;;;;;4.80;1.80;;;;;;;;;;5091529;28;20791;-77
2023/07/03 19:09:09;;;;;;;3.83;2.40;;;;;;;;;;5092182;28;20456;-77
2023/07/03 19:11:42;;;;;;;1.93;1.80;;;;;;;;;;5091305;28;20455;-78
2023/07/03 19:14:33;;;;;;;1.83;1.70;;;;;;;;;;5092074;28;20568;-76
2023/07/03 19:17:13;;;;;;;1.93;1.70;;;;;;;;;;5092053;28;20970;-77
2023/07/03 19:19:44;;;;;;;2.17;1.93;;;;;;;;;;5092362;28;20449;-76
2023/07/03 19:22:19;;;;;;;2.63;1.80;;;;;;;;;;5092430;28;20449;-77
2023/07/03 19:24:55;;;;;;;2.23;1.83;;;;;;;;;;5091635;28;20429;-77
2023/07/03 19:27:23;;;;;;;3.93;2.00;;;;;;;;;;5090211;28;20476;-76
2023/07/03 19:29:59;;;;;;;2.13;1.93;;;;;;;;;;5090061;28;20578;-77
2023/07/03 19:32:48;;;;;;;1.87;1.77;;;;;;;;;;5092999;28;20427;-77
2023/07/03 19:38:37;;;;;;;3.47;1.83;;;;;;;;;;5052332;28;20480;-77
2023/07/03 19:41:13;;;;;;;2.43;1.93;;;;;;;;;;5092590;28;20441;-77
2023/07/03 19:47:02;;;;;;;2.70;2.50;;;;;;;;;;5083842;28;20440;-78
2023/07/03 19:49:38;;;;;;;3.93;2.30;;;;;;;;;;5090931;28;20450;-76
2023/07/03 19:55:06;;;;;;;2.10;1.90;;;;;;;;;;5086460;28;20472;-78
2023/07/03 19:57:35;;;;;;;3.10;2.40;;;;;;;;;;5083824;28;20433;-78
2023/07/03 20:00:34;;;;;;;2.93;2.10;;;;;;;;;;5088525;28;20453;-78
2023/07/03 20:03:16;;;;;;;6.27;2.40;;;;;;;;;;5081597;28;20899;-78
2023/07/03 20:05:52;;;;;;;2.70;2.20;;;;;;;;;;5088638;28;20449;-77
2023/07/03 20:08:40;;;;;;;2.83;2.10;;;;;;;;;;5090183;28;20456;-77